sensor_id;sensor_type;location;lat;lon;timestamp;temperature;humidity
27164;DHT22;14685;50.618;7.024;2022-12-18T00:01:26;-3.80;99.90
27164;DHT22;14685;50.618;7.024;2022-12-18T00:03:55;-3.90;99.90
27164;DHT22;14685;50.618;7.024;2022-12-18T00:06:24;-3.90;99.90
27164;DHT22;14685;50.618;7.024;2022-12-18T00:08:51;-4.00;99.90
27164;DHT22;14685;50.618;7.024;2022-12-18T00:11:20;-4.00;99.90
27164;DHT22;14685;50.618;7.024;2022-12-18T00:13:47;-4.10;99.90
27164;DHT22;14685;50.618;7.024;2022-12-18T00:16:16;-4.10;99.90
27164;DHT22;14685;50.618;7.024;2022-12-18T00:18:45;-4.20;99.90
27164;DHT22;14685;50.618;7.024;2022-12-18T00:21:13;-4.10;99.90
27164;DHT22;14685;50.618;7.024;2022-12-18T00:23:42;-4.20;99.90
27164;DHT22;14685;50.618;7.024;2022-12-18T00:26:30;-4.20;99.90
27164;DHT22;14685;50.618;7.024;2022-12-18T00:29:03;-4.20;99.90
27164;DHT22;14685;50.618;7.024;2022-12-18T00:31:31;-4.20;99.90
27164;DHT22;14685;50.618;7.024;2022-12-18T00:33:59;-4.20;99.90
27164;DHT22;14685;50.618;7.024;2022-12-18T00:36:28;-4.30;99.90
27164;DHT22;14685;50.618;7.024;2022-12-18T00:38:57;-4.30;99.90
27164;DHT22;14685;50.618;7.024;2022-12-18T00:41:26;-4.30;99.90
27164;DHT22;14685;50.618;7.024;2022-12-18T00:44:14;-4.30;99.90
27164;DHT22;14685;50.618;7.024;2022-12-18T00:46:42;-4.40;99.90
27164;DHT22;14685;50.618;7.024;2022-12-18T00:49:10;-4.40;99.90
27164;DHT22;14685;50.618;7.024;2022-12-18T00:51:36;-4.30;99.90
27164;DHT22;14685;50.618;7.024;2022-12-18T00:54:03;-4.40;99.90
27164;DHT22;14685;50.618;7.024;2022-12-18T00:56:30;-4.40;99.90
27164;DHT22;14685;50.618;7.024;2022-12-18T00:58:57;-4.40;99.90
27164;DHT22;14685;50.618;7.024;2022-12-18T01:01:23;-4.40;99.90
27164;DHT22;14685;50.618;7.024;2022-12-18T01:03:50;-4.50;99.90
27164;DHT22;14685;50.618;7.024;2022-12-18T01:06:17;-4.50;99.90
27164;DHT22;14685;50.618;7.024;2022-12-18T01:08:44;-4.50;99.90
27164;DHT22;14685;50.618;7.024;2022-12-18T01:11:13;-4.50;99.90
27164;DHT22;14685;50.618;7.024;2022-12-18T01:13:40;-4.50;99.90
27164;DHT22;14685;50.618;7.024;2022-12-18T01:16:08;-4.50;99.90
27164;DHT22;14685;50.618;7.024;2022-12-18T01:18:37;-4.50;99.90
27164;DHT22;14685;50.618;7.024;2022-12-18T01:21:13;-4.50;99.90
27164;DHT22;14685;50.618;7.024;2022-12-18T01:23:40;-4.50;99.90
27164;DHT22;14685;50.618;7.024;2022-12-18T01:26:10;-4.50;99.90
27164;DHT22;14685;50.618;7.024;2022-12-18T01:28:37;-4.40;99.90
27164;DHT22;14685;50.618;7.024;2022-12-18T01:33:44;-4.40;99.90
27164;DHT22;14685;50.618;7.024;2022-12-18T01:36:19;-4.50;99.90
27164;DHT22;14685;50.618;7.024;2022-12-18T01:38:47;-4.50;99.90
27164;DHT22;14685;50.618;7.024;2022-12-18T01:41:16;-4.50;99.90
27164;DHT22;14685;50.618;7.024;2022-12-18T01:43:46;-4.50;99.90
27164;DHT22;14685;50.618;7.024;2022-12-18T01:46:14;-4.50;99.90
27164;DHT22;14685;50.618;7.024;2022-12-18T01:48:41;-4.50;99.90
27164;DHT22;14685;50.618;7.024;2022-12-18T01:51:10;-4.50;99.90
27164;DHT22;14685;50.618;7.024;2022-12-18T01:53:41;-4.60;99.90
27164;DHT22;14685;50.618;7.024;2022-12-18T01:56:12;-4.60;99.90
27164;DHT22;14685;50.618;7.024;2022-12-18T01:58:55;-4.60;99.90
27164;DHT22;14685;50.618;7.024;2022-12-18T02:01:23;-4.60;99.90
27164;DHT22;14685;50.618;7.024;2022-12-18T02:03:53;-4.60;99.90
27164;DHT22;14685;50.618;7.024;2022-12-18T02:06:29;-4.60;99.90
27164;DHT22;14685;50.618;7.024;2022-12-18T02:09:19;-4.60;99.90
27164;DHT22;14685;50.618;7.024;2022-12-18T02:12:09;-4.60;99.90
27164;DHT22;14685;50.618;7.024;2022-12-18T02:15:00;-4.70;99.90
27164;DHT22;14685;50.618;7.024;2022-12-18T02:17:38;-4.70;99.90
27164;DHT22;14685;50.618;7.024;2022-12-18T02:20:42;-4.80;99.90
27164;DHT22;14685;50.618;7.024;2022-12-18T02:28:35;-4.80;99.90
27164;DHT22;14685;50.618;7.024;2022-12-18T02:31:06;-4.70;99.90
27164;DHT22;14685;50.618;7.024;2022-12-18T02:33:35;-4.80;99.90
27164;DHT22;14685;50.618;7.024;2022-12-18T02:36:03;-4.80;99.90
27164;DHT22;14685;50.618;7.024;2022-12-18T02:38:31;-4.80;99.90
27164;DHT22;14685;50.618;7.024;2022-12-18T02:40:59;-4.80;99.90
27164;DHT22;14685;50.618;7.024;2022-12-18T02:43:26;-4.80;99.90
27164;DHT22;14685;50.618;7.024;2022-12-18T02:45:58;-4.80;99.90
27164;DHT22;14685;50.618;7.024;2022-12-18T02:48:31;-4.80;99.90
27164;DHT22;14685;50.618;7.024;2022-12-18T02:51:10;-4.80;99.90
27164;DHT22;14685;50.618;7.024;2022-12-18T02:53:48;-4.70;99.90
27164;DHT22;14685;50.618;7.024;2022-12-18T02:56:25;-4.70;99.90
27164;DHT22;14685;50.618;7.024;2022-12-18T02:59:12;-4.70;99.90
27164;DHT22;14685;50.618;7.024;2022-12-18T03:01:52;-4.60;99.90
27164;DHT22;14685;50.618;7.024;2022-12-18T03:04:32;-4.60;99.90
27164;DHT22;14685;50.618;7.024;2022-12-18T03:07:13;-4.60;99.90
27164;DHT22;14685;50.618;7.024;2022-12-18T03:09:44;-4.60;99.90
27164;DHT22;14685;50.618;7.024;2022-12-18T03:12:23;-4.70;99.90
27164;DHT22;14685;50.618;7.024;2022-12-18T03:18:06;-4.70;99.90
27164;DHT22;14685;50.618;7.024;2022-12-18T03:20:37;-4.80;99.90
27164;DHT22;14685;50.618;7.024;2022-12-18T03:23:12;-4.70;99.90
27164;DHT22;14685;50.618;7.024;2022-12-18T03:25:43;-4.70;99.90
27164;DHT22;14685;50.618;7.024;2022-12-18T03:28:14;-4.70;99.90
27164;DHT22;14685;50.618;7.024;2022-12-18T03:30:47;-4.70;99.90
27164;DHT22;14685;50.618;7.024;2022-12-18T03:33:21;-4.70;99.90
27164;DHT22;14685;50.618;7.024;2022-12-18T03:35:50;-4.60;99.90
27164;DHT22;14685;50.618;7.024;2022-12-18T03:38:17;-4.60;99.90
27164;DHT22;14685;50.618;7.024;2022-12-18T03:41:18;-4.60;99.90
27164;DHT22;14685;50.618;7.024;2022-12-18T03:49:56;-4.40;99.90
27164;DHT22;14685;50.618;7.024;2022-12-18T03:52:33;-4.40;99.90
27164;DHT22;14685;50.618;7.024;2022-12-18T03:55:04;-4.40;99.90
27164;DHT22;14685;50.618;7.024;2022-12-18T03:57:32;-4.30;99.90
27164;DHT22;14685;50.618;7.024;2022-12-18T04:00:09;-4.30;99.90
27164;DHT22;14685;50.618;7.024;2022-12-18T04:02:40;-4.20;99.90
27164;DHT22;14685;50.618;7.024;2022-12-18T04:05:12;-4.20;99.90
27164;DHT22;14685;50.618;7.024;2022-12-18T04:07:40;-4.30;99.90
27164;DHT22;14685;50.618;7.024;2022-12-18T04:10:08;-4.20;99.90
27164;DHT22;14685;50.618;7.024;2022-12-18T04:12:37;-4.10;99.90
27164;DHT22;14685;50.618;7.024;2022-12-18T04:15:05;-4.10;99.90
27164;DHT22;14685;50.618;7.024;2022-12-18T04:17:32;-4.10;99.90
27164;DHT22;14685;50.618;7.024;2022-12-18T04:19:59;-4.10;99.90
27164;DHT22;14685;50.618;7.024;2022-12-18T04:22:27;-4.10;99.90
27164;DHT22;14685;50.618;7.024;2022-12-18T04:24:55;-4.10;99.90
27164;DHT22;14685;50.618;7.024;2022-12-18T04:27:22;-4.10;99.90
27164;DHT22;14685;50.618;7.024;2022-12-18T04:29:49;-4.10;99.90
27164;DHT22;14685;50.618;7.024;2022-12-18T04:32:15;-4.10;99.90
27164;DHT22;14685;50.618;7.024;2022-12-18T04:34:42;-4.00;99.90
27164;DHT22;14685;50.618;7.024;2022-12-18T04:37:09;-3.90;99.90
27164;DHT22;14685;50.618;7.024;2022-12-18T04:39:36;-4.00;99.90
27164;DHT22;14685;50.618;7.024;2022-12-18T04:42:02;-3.90;99.90
27164;DHT22;14685;50.618;7.024;2022-12-18T04:44:30;-3.90;99.90
27164;DHT22;14685;50.618;7.024;2022-12-18T04:46:57;-4.00;99.90
27164;DHT22;14685;50.618;7.024;2022-12-18T04:49:24;-3.90;99.90
27164;DHT22;14685;50.618;7.024;2022-12-18T04:51:52;-3.90;99.90
27164;DHT22;14685;50.618;7.024;2022-12-18T04:54:21;-4.00;99.90
27164;DHT22;14685;50.618;7.024;2022-12-18T04:56:48;-3.90;99.90
27164;DHT22;14685;50.618;7.024;2022-12-18T04:59:15;-3.90;99.90
27164;DHT22;14685;50.618;7.024;2022-12-18T05:01:43;-3.90;99.90
27164;DHT22;14685;50.618;7.024;2022-12-18T05:04:10;-3.90;99.90
27164;DHT22;14685;50.618;7.024;2022-12-18T05:06:37;-3.90;99.90
27164;DHT22;14685;50.618;7.024;2022-12-18T05:09:04;-3.90;99.90
27164;DHT22;14685;50.618;7.024;2022-12-18T05:11:31;-3.80;99.90
27164;DHT22;14685;50.618;7.024;2022-12-18T05:13:58;-3.90;99.90
27164;DHT22;14685;50.618;7.024;2022-12-18T05:16:25;-3.90;99.90
27164;DHT22;14685;50.618;7.024;2022-12-18T05:18:53;-3.90;99.90
27164;DHT22;14685;50.618;7.024;2022-12-18T05:21:21;-4.00;99.90
27164;DHT22;14685;50.618;7.024;2022-12-18T05:23:47;-3.90;99.90
27164;DHT22;14685;50.618;7.024;2022-12-18T05:26:18;-3.90;99.90
27164;DHT22;14685;50.618;7.024;2022-12-18T05:28:45;-4.00;99.90
27164;DHT22;14685;50.618;7.024;2022-12-18T05:31:12;-4.00;99.90
27164;DHT22;14685;50.618;7.024;2022-12-18T05:33:40;-4.00;99.90
27164;DHT22;14685;50.618;7.024;2022-12-18T05:36:08;-4.00;99.90
27164;DHT22;14685;50.618;7.024;2022-12-18T05:38:37;-4.00;99.90
27164;DHT22;14685;50.618;7.024;2022-12-18T05:41:05;-4.00;99.90
27164;DHT22;14685;50.618;7.024;2022-12-18T05:43:35;-3.90;99.90
27164;DHT22;14685;50.618;7.024;2022-12-18T05:46:12;-3.90;99.90
27164;DHT22;14685;50.618;7.024;2022-12-18T05:48:40;-3.80;99.90
27164;DHT22;14685;50.618;7.024;2022-12-18T05:51:09;-3.80;99.90
27164;DHT22;14685;50.618;7.024;2022-12-18T05:53:37;-3.80;99.90
27164;DHT22;14685;50.618;7.024;2022-12-18T05:56:09;-3.80;99.90
27164;DHT22;14685;50.618;7.024;2022-12-18T05:58:39;-3.80;99.90
27164;DHT22;14685;50.618;7.024;2022-12-18T06:01:15;-3.70;99.90
27164;DHT22;14685;50.618;7.024;2022-12-18T06:03:42;-3.70;99.90
27164;DHT22;14685;50.618;7.024;2022-12-18T06:06:21;-3.60;99.90
27164;DHT22;14685;50.618;7.024;2022-12-18T06:08:49;-3.50;99.90
27164;DHT22;14685;50.618;7.024;2022-12-18T06:11:19;-3.60;99.90
27164;DHT22;14685;50.618;7.024;2022-12-18T06:13:49;-3.50;99.90
27164;DHT22;14685;50.618;7.024;2022-12-18T06:16:23;-3.50;99.90
27164;DHT22;14685;50.618;7.024;2022-12-18T06:18:52;-3.50;99.90
27164;DHT22;14685;50.618;7.024;2022-12-18T06:21:19;-3.50;99.90
27164;DHT22;14685;50.618;7.024;2022-12-18T06:23:47;-3.50;99.90
27164;DHT22;14685;50.618;7.024;2022-12-18T06:26:14;-3.50;99.90
27164;DHT22;14685;50.618;7.024;2022-12-18T06:28:41;-3.50;99.90
27164;DHT22;14685;50.618;7.024;2022-12-18T06:31:09;-3.30;99.90
27164;DHT22;14685;50.618;7.024;2022-12-18T06:33:36;-3.40;99.90
27164;DHT22;14685;50.618;7.024;2022-12-18T06:36:07;-3.40;99.90
27164;DHT22;14685;50.618;7.024;2022-12-18T06:38:35;-3.40;99.90
27164;DHT22;14685;50.618;7.024;2022-12-18T06:41:11;-3.30;99.90
27164;DHT22;14685;50.618;7.024;2022-12-18T06:43:38;-3.40;99.90
27164;DHT22;14685;50.618;7.024;2022-12-18T06:46:06;-3.40;99.90
27164;DHT22;14685;50.618;7.024;2022-12-18T06:48:33;-3.40;99.90
27164;DHT22;14685;50.618;7.024;2022-12-18T06:51:00;-3.40;99.90
27164;DHT22;14685;50.618;7.024;2022-12-18T06:53:30;-3.40;99.90
27164;DHT22;14685;50.618;7.024;2022-12-18T06:56:05;-3.40;99.90
27164;DHT22;14685;50.618;7.024;2022-12-18T06:58:37;-3.30;99.90
27164;DHT22;14685;50.618;7.024;2022-12-18T07:01:05;-3.40;99.90
27164;DHT22;14685;50.618;7.024;2022-12-18T07:03:32;-3.30;99.90
27164;DHT22;14685;50.618;7.024;2022-12-18T07:05:59;-3.30;99.90
27164;DHT22;14685;50.618;7.024;2022-12-18T07:08:26;-3.30;99.90
27164;DHT22;14685;50.618;7.024;2022-12-18T07:10:55;-3.30;99.90
27164;DHT22;14685;50.618;7.024;2022-12-18T07:13:23;-3.30;99.90
27164;DHT22;14685;50.618;7.024;2022-12-18T07:15:50;-3.30;99.90
27164;DHT22;14685;50.618;7.024;2022-12-18T07:18:17;-3.30;99.90
27164;DHT22;14685;50.618;7.024;2022-12-18T07:20:45;-3.30;99.90
27164;DHT22;14685;50.618;7.024;2022-12-18T07:23:13;-3.30;99.90
27164;DHT22;14685;50.618;7.024;2022-12-18T07:25:42;-3.30;99.90
27164;DHT22;14685;50.618;7.024;2022-12-18T07:28:08;-3.40;99.90
27164;DHT22;14685;50.618;7.024;2022-12-18T07:30:42;-3.40;99.90
27164;DHT22;14685;50.618;7.024;2022-12-18T07:33:09;-3.50;99.90
27164;DHT22;14685;50.618;7.024;2022-12-18T07:35:36;-3.40;99.90
27164;DHT22;14685;50.618;7.024;2022-12-18T07:38:03;-3.50;99.90
27164;DHT22;14685;50.618;7.024;2022-12-18T07:40:30;-3.40;99.90
27164;DHT22;14685;50.618;7.024;2022-12-18T07:42:56;-3.40;99.90
27164;DHT22;14685;50.618;7.024;2022-12-18T07:45:23;-3.40;99.90
27164;DHT22;14685;50.618;7.024;2022-12-18T07:47:52;-3.40;99.90
27164;DHT22;14685;50.618;7.024;2022-12-18T07:50:18;-3.40;99.90
27164;DHT22;14685;50.618;7.024;2022-12-18T07:52:45;-3.40;99.90
27164;DHT22;14685;50.618;7.024;2022-12-18T07:55:13;-3.40;99.90
27164;DHT22;14685;50.618;7.024;2022-12-18T07:57:40;-3.40;99.90
27164;DHT22;14685;50.618;7.024;2022-12-18T08:00:16;-3.30;99.90
27164;DHT22;14685;50.618;7.024;2022-12-18T08:02:43;-3.30;99.90
27164;DHT22;14685;50.618;7.024;2022-12-18T08:05:10;-3.30;99.90
27164;DHT22;14685;50.618;7.024;2022-12-18T08:07:38;-3.30;99.90
27164;DHT22;14685;50.618;7.024;2022-12-18T08:10:05;-3.20;99.90
27164;DHT22;14685;50.618;7.024;2022-12-18T08:12:32;-3.10;99.90
27164;DHT22;14685;50.618;7.024;2022-12-18T08:14:59;-3.10;99.90
27164;DHT22;14685;50.618;7.024;2022-12-18T08:17:28;-3.10;99.90
27164;DHT22;14685;50.618;7.024;2022-12-18T08:19:54;-3.10;99.90
27164;DHT22;14685;50.618;7.024;2022-12-18T08:22:22;-3.10;99.90
27164;DHT22;14685;50.618;7.024;2022-12-18T08:24:48;-3.10;99.90
27164;DHT22;14685;50.618;7.024;2022-12-18T08:27:15;-3.10;99.90
27164;DHT22;14685;50.618;7.024;2022-12-18T08:29:58;-3.00;99.90
27164;DHT22;14685;50.618;7.024;2022-12-18T08:32:25;-2.90;99.90
27164;DHT22;14685;50.618;7.024;2022-12-18T08:34:53;-2.80;99.90
27164;DHT22;14685;50.618;7.024;2022-12-18T08:37:19;-2.70;99.90
27164;DHT22;14685;50.618;7.024;2022-12-18T08:39:46;-2.60;99.90
27164;DHT22;14685;50.618;7.024;2022-12-18T08:42:13;-2.60;99.90
27164;DHT22;14685;50.618;7.024;2022-12-18T08:44:59;-2.50;99.90
27164;DHT22;14685;50.618;7.024;2022-12-18T08:47:26;-2.50;99.90
27164;DHT22;14685;50.618;7.024;2022-12-18T08:49:53;-2.40;99.90
27164;DHT22;14685;50.618;7.024;2022-12-18T08:52:21;-2.40;99.90
27164;DHT22;14685;50.618;7.024;2022-12-18T08:54:47;-2.20;99.90
27164;DHT22;14685;50.618;7.024;2022-12-18T08:57:14;-2.30;99.90
27164;DHT22;14685;50.618;7.024;2022-12-18T08:59:41;-2.20;99.90
27164;DHT22;14685;50.618;7.024;2022-12-18T09:02:10;-2.10;99.90
27164;DHT22;14685;50.618;7.024;2022-12-18T09:04:37;-2.00;99.90
27164;DHT22;14685;50.618;7.024;2022-12-18T09:07:07;-1.90;99.90
27164;DHT22;14685;50.618;7.024;2022-12-18T09:09:34;-1.80;99.90
27164;DHT22;14685;50.618;7.024;2022-12-18T09:12:03;-1.70;99.90
27164;DHT22;14685;50.618;7.024;2022-12-18T09:14:29;-1.70;99.90
27164;DHT22;14685;50.618;7.024;2022-12-18T09:16:56;-1.70;99.90
27164;DHT22;14685;50.618;7.024;2022-12-18T09:19:23;-1.70;99.90
27164;DHT22;14685;50.618;7.024;2022-12-18T09:21:50;-1.80;99.90
27164;DHT22;14685;50.618;7.024;2022-12-18T09:24:16;-1.80;99.90
27164;DHT22;14685;50.618;7.024;2022-12-18T09:26:43;-1.90;99.90
27164;DHT22;14685;50.618;7.024;2022-12-18T09:29:13;-1.80;99.90
27164;DHT22;14685;50.618;7.024;2022-12-18T09:31:41;-1.80;99.90
27164;DHT22;14685;50.618;7.024;2022-12-18T09:34:08;-1.60;99.90
27164;DHT22;14685;50.618;7.024;2022-12-18T09:36:35;-1.60;99.90
27164;DHT22;14685;50.618;7.024;2022-12-18T09:39:02;-1.50;99.90
27164;DHT22;14685;50.618;7.024;2022-12-18T09:44:29;-1.30;99.90
27164;DHT22;14685;50.618;7.024;2022-12-18T09:47:14;-1.30;99.90
27164;DHT22;14685;50.618;7.024;2022-12-18T09:49:44;-1.30;99.90
27164;DHT22;14685;50.618;7.024;2022-12-18T09:52:23;-1.40;99.90
27164;DHT22;14685;50.618;7.024;2022-12-18T09:55:03;-1.40;99.90
27164;DHT22;14685;50.618;7.024;2022-12-18T09:57:33;-1.40;99.90
27164;DHT22;14685;50.618;7.024;2022-12-18T10:02:45;-1.40;99.90
27164;DHT22;14685;50.618;7.024;2022-12-18T10:05:16;-1.40;99.90
27164;DHT22;14685;50.618;7.024;2022-12-18T10:10:48;-1.40;99.90
27164;DHT22;14685;50.618;7.024;2022-12-18T10:13:38;-1.40;99.90
27164;DHT22;14685;50.618;7.024;2022-12-18T10:16:17;-1.30;99.90
27164;DHT22;14685;50.618;7.024;2022-12-18T10:22:33;-1.40;99.90
27164;DHT22;14685;50.618;7.024;2022-12-18T10:25:22;-1.30;99.90
27164;DHT22;14685;50.618;7.024;2022-12-18T10:27:56;-1.30;99.90
27164;DHT22;14685;50.618;7.024;2022-12-18T10:30:25;-1.30;99.90
27164;DHT22;14685;50.618;7.024;2022-12-18T10:32:52;-1.20;99.90
27164;DHT22;14685;50.618;7.024;2022-12-18T10:35:23;-1.20;99.90
27164;DHT22;14685;50.618;7.024;2022-12-18T10:43:31;-1.00;99.90
27164;DHT22;14685;50.618;7.024;2022-12-18T10:48:52;-0.90;99.90
27164;DHT22;14685;50.618;7.024;2022-12-18T10:51:24;-0.90;99.90
27164;DHT22;14685;50.618;7.024;2022-12-18T10:56:27;-0.90;99.90
27164;DHT22;14685;50.618;7.024;2022-12-18T10:58:57;-0.90;99.90
27164;DHT22;14685;50.618;7.024;2022-12-18T11:01:24;-0.80;99.90
27164;DHT22;14685;50.618;7.024;2022-12-18T11:06:28;-0.80;99.90
27164;DHT22;14685;50.618;7.024;2022-12-18T11:09:04;-0.80;99.90
27164;DHT22;14685;50.618;7.024;2022-12-18T11:11:40;-0.80;99.90
27164;DHT22;14685;50.618;7.024;2022-12-18T11:14:18;-0.80;99.90
27164;DHT22;14685;50.618;7.024;2022-12-18T11:16:48;-0.80;99.90
27164;DHT22;14685;50.618;7.024;2022-12-18T11:19:39;-0.70;99.90
27164;DHT22;14685;50.618;7.024;2022-12-18T11:22:39;-0.70;99.90
27164;DHT22;14685;50.618;7.024;2022-12-18T11:28:02;-0.70;99.90
27164;DHT22;14685;50.618;7.024;2022-12-18T11:30:31;-0.70;99.90
27164;DHT22;14685;50.618;7.024;2022-12-18T11:33:21;-0.70;99.90
27164;DHT22;14685;50.618;7.024;2022-12-18T11:36:02;-0.70;99.90
27164;DHT22;14685;50.618;7.024;2022-12-18T11:38:33;-0.70;99.90
27164;DHT22;14685;50.618;7.024;2022-12-18T11:41:26;-0.70;99.90
27164;DHT22;14685;50.618;7.024;2022-12-18T11:44:18;-0.60;99.90
27164;DHT22;14685;50.618;7.024;2022-12-18T11:47:00;-0.60;99.90
27164;DHT22;14685;50.618;7.024;2022-12-18T11:49:35;-0.70;99.90
27164;DHT22;14685;50.618;7.024;2022-12-18T11:52:09;-0.70;99.90
27164;DHT22;14685;50.618;7.024;2022-12-18T11:54:40;-0.60;99.90
27164;DHT22;14685;50.618;7.024;2022-12-18T12:03:07;-0.60;99.90
27164;DHT22;14685;50.618;7.024;2022-12-18T12:08:54;-0.70;99.90
27164;DHT22;14685;50.618;7.024;2022-12-18T12:16:57;-0.70;99.90
27164;DHT22;14685;50.618;7.024;2022-12-18T12:19:53;-0.80;99.90
27164;DHT22;14685;50.618;7.024;2022-12-18T12:22:41;-0.80;99.90
27164;DHT22;14685;50.618;7.024;2022-12-18T12:25:37;-0.80;99.90
27164;DHT22;14685;50.618;7.024;2022-12-18T12:28:34;-0.80;99.90
27164;DHT22;14685;50.618;7.024;2022-12-18T12:34:42;-0.80;99.90
27164;DHT22;14685;50.618;7.024;2022-12-18T12:37:29;-0.80;99.90
27164;DHT22;14685;50.618;7.024;2022-12-18T12:39:59;-0.90;99.90
27164;DHT22;14685;50.618;7.024;2022-12-18T12:42:58;-0.80;99.90
27164;DHT22;14685;50.618;7.024;2022-12-18T12:46:06;-0.80;99.90
27164;DHT22;14685;50.618;7.024;2022-12-18T12:48:47;-1.00;99.90
27164;DHT22;14685;50.618;7.024;2022-12-18T12:51:25;-1.00;99.90
27164;DHT22;14685;50.618;7.024;2022-12-18T12:53:54;-1.10;99.90
27164;DHT22;14685;50.618;7.024;2022-12-18T12:56:26;-1.00;99.90
27164;DHT22;14685;50.618;7.024;2022-12-18T12:59:02;-1.00;99.90
27164;DHT22;14685;50.618;7.024;2022-12-18T13:04:23;-0.80;99.90
27164;DHT22;14685;50.618;7.024;2022-12-18T13:06:59;-0.90;99.90
27164;DHT22;14685;50.618;7.024;2022-12-18T13:09:32;-0.90;99.90
27164;DHT22;14685;50.618;7.024;2022-12-18T13:12:04;-1.00;99.90
27164;DHT22;14685;50.618;7.024;2022-12-18T13:14:53;-0.80;99.90
27164;DHT22;14685;50.618;7.024;2022-12-18T13:20:13;-0.90;99.90
27164;DHT22;14685;50.618;7.024;2022-12-18T13:22:47;-0.90;99.90
27164;DHT22;14685;50.618;7.024;2022-12-18T13:25:31;-0.80;99.90
27164;DHT22;14685;50.618;7.024;2022-12-18T13:30:56;-0.90;99.90
27164;DHT22;14685;50.618;7.024;2022-12-18T13:38:39;-0.90;99.90
27164;DHT22;14685;50.618;7.024;2022-12-18T13:43:47;-0.90;99.90
27164;DHT22;14685;50.618;7.024;2022-12-18T13:46:29;-0.90;99.90
27164;DHT22;14685;50.618;7.024;2022-12-18T13:51:49;-1.00;99.90
27164;DHT22;14685;50.618;7.024;2022-12-18T13:54:34;-1.10;99.90
27164;DHT22;14685;50.618;7.024;2022-12-18T13:57:03;-1.10;99.90
27164;DHT22;14685;50.618;7.024;2022-12-18T13:59:39;-1.10;99.90
27164;DHT22;14685;50.618;7.024;2022-12-18T14:02:14;-1.20;99.90
27164;DHT22;14685;50.618;7.024;2022-12-18T14:04:46;-1.20;99.90
27164;DHT22;14685;50.618;7.024;2022-12-18T14:07:16;-1.20;99.90
27164;DHT22;14685;50.618;7.024;2022-12-18T14:09:55;-1.20;99.90
27164;DHT22;14685;50.618;7.024;2022-12-18T14:12:50;-1.30;99.90
27164;DHT22;14685;50.618;7.024;2022-12-18T14:15:43;-1.30;99.90
27164;DHT22;14685;50.618;7.024;2022-12-18T14:18:21;-1.30;99.90
27164;DHT22;14685;50.618;7.024;2022-12-18T14:20:52;-1.30;99.90
27164;DHT22;14685;50.618;7.024;2022-12-18T14:23:31;-1.30;99.90
27164;DHT22;14685;50.618;7.024;2022-12-18T14:25:58;-1.30;99.90
27164;DHT22;14685;50.618;7.024;2022-12-18T14:28:31;-1.40;99.90
27164;DHT22;14685;50.618;7.024;2022-12-18T14:30:59;-1.40;99.90
27164;DHT22;14685;50.618;7.024;2022-12-18T14:33:27;-1.30;99.90
27164;DHT22;14685;50.618;7.024;2022-12-18T14:35:59;-1.40;99.90
27164;DHT22;14685;50.618;7.024;2022-12-18T14:38:32;-1.50;99.90
27164;DHT22;14685;50.618;7.024;2022-12-18T14:43:32;-1.50;99.90
27164;DHT22;14685;50.618;7.024;2022-12-18T14:46:00;-1.60;99.90
27164;DHT22;14685;50.618;7.024;2022-12-18T14:48:39;-1.60;99.90
27164;DHT22;14685;50.618;7.024;2022-12-18T14:53:42;-1.60;99.90
27164;DHT22;14685;50.618;7.024;2022-12-18T14:59:02;-1.50;99.90
27164;DHT22;14685;50.618;7.024;2022-12-18T15:01:33;-1.50;99.90
27164;DHT22;14685;50.618;7.024;2022-12-18T15:04:02;-1.50;99.90
27164;DHT22;14685;50.618;7.024;2022-12-18T15:06:35;-1.50;99.90
27164;DHT22;14685;50.618;7.024;2022-12-18T15:09:24;-1.50;99.90
27164;DHT22;14685;50.618;7.024;2022-12-18T15:11:59;-1.40;99.90
27164;DHT22;14685;50.618;7.024;2022-12-18T15:17:00;-1.40;99.90
27164;DHT22;14685;50.618;7.024;2022-12-18T15:19:42;-1.40;99.90
27164;DHT22;14685;50.618;7.024;2022-12-18T15:22:21;-1.40;99.90
27164;DHT22;14685;50.618;7.024;2022-12-18T15:24:49;-1.30;99.90
27164;DHT22;14685;50.618;7.024;2022-12-18T15:27:29;-1.30;99.90
27164;DHT22;14685;50.618;7.024;2022-12-18T15:32:36;-1.20;99.90
27164;DHT22;14685;50.618;7.024;2022-12-18T15:35:15;-1.30;99.90
27164;DHT22;14685;50.618;7.024;2022-12-18T15:37:43;-1.30;99.90
27164;DHT22;14685;50.618;7.024;2022-12-18T15:40:21;-1.20;99.90
27164;DHT22;14685;50.618;7.024;2022-12-18T15:42:49;-1.30;99.90
27164;DHT22;14685;50.618;7.024;2022-12-18T15:45:36;-1.30;99.90
27164;DHT22;14685;50.618;7.024;2022-12-18T15:48:21;-1.30;99.90
27164;DHT22;14685;50.618;7.024;2022-12-18T15:50:52;-1.30;99.90
27164;DHT22;14685;50.618;7.024;2022-12-18T15:53:19;-1.30;99.90
27164;DHT22;14685;50.618;7.024;2022-12-18T15:55:46;-1.30;99.90
27164;DHT22;14685;50.618;7.024;2022-12-18T15:58:32;-1.30;99.90
27164;DHT22;14685;50.618;7.024;2022-12-18T16:00:59;-1.30;99.90
27164;DHT22;14685;50.618;7.024;2022-12-18T16:03:28;-1.30;99.90
27164;DHT22;14685;50.618;7.024;2022-12-18T16:05:56;-1.30;99.90
27164;DHT22;14685;50.618;7.024;2022-12-18T16:08:25;-1.30;99.90
27164;DHT22;14685;50.618;7.024;2022-12-18T16:10:53;-1.30;99.90
27164;DHT22;14685;50.618;7.024;2022-12-18T16:13:21;-1.30;99.90
27164;DHT22;14685;50.618;7.024;2022-12-18T16:15:51;-1.30;99.90
27164;DHT22;14685;50.618;7.024;2022-12-18T16:18:18;-1.30;99.90
27164;DHT22;14685;50.618;7.024;2022-12-18T16:20:45;-1.30;99.90
27164;DHT22;14685;50.618;7.024;2022-12-18T16:23:12;-1.30;99.90
27164;DHT22;14685;50.618;7.024;2022-12-18T16:25:40;-1.30;99.90
27164;DHT22;14685;50.618;7.024;2022-12-18T16:28:07;-1.20;99.90
27164;DHT22;14685;50.618;7.024;2022-12-18T16:30:35;-1.20;99.90
27164;DHT22;14685;50.618;7.024;2022-12-18T16:33:06;-1.30;99.90
27164;DHT22;14685;50.618;7.024;2022-12-18T16:35:33;-1.30;99.90
27164;DHT22;14685;50.618;7.024;2022-12-18T16:38:00;-1.30;99.90
27164;DHT22;14685;50.618;7.024;2022-12-18T16:40:27;-1.20;99.90
27164;DHT22;14685;50.618;7.024;2022-12-18T16:42:53;-1.30;99.90
27164;DHT22;14685;50.618;7.024;2022-12-18T16:45:22;-1.30;99.90
27164;DHT22;14685;50.618;7.024;2022-12-18T16:47:50;-1.30;99.90
27164;DHT22;14685;50.618;7.024;2022-12-18T16:50:16;-1.30;99.90
27164;DHT22;14685;50.618;7.024;2022-12-18T16:52:43;-1.30;99.90
27164;DHT22;14685;50.618;7.024;2022-12-18T16:55:12;-1.30;99.90
27164;DHT22;14685;50.618;7.024;2022-12-18T16:57:39;-1.30;99.90
27164;DHT22;14685;50.618;7.024;2022-12-18T17:00:07;-1.30;99.90
27164;DHT22;14685;50.618;7.024;2022-12-18T17:02:35;-1.30;99.90
27164;DHT22;14685;50.618;7.024;2022-12-18T17:05:04;-1.30;99.90
27164;DHT22;14685;50.618;7.024;2022-12-18T17:07:30;-1.30;99.90
27164;DHT22;14685;50.618;7.024;2022-12-18T17:09:58;-1.30;99.90
27164;DHT22;14685;50.618;7.024;2022-12-18T17:12:24;-1.20;99.90
27164;DHT22;14685;50.618;7.024;2022-12-18T17:14:52;-1.20;99.90
27164;DHT22;14685;50.618;7.024;2022-12-18T17:17:19;-1.20;99.90
27164;DHT22;14685;50.618;7.024;2022-12-18T17:19:49;-1.10;99.90
27164;DHT22;14685;50.618;7.024;2022-12-18T17:22:17;-1.20;99.90
27164;DHT22;14685;50.618;7.024;2022-12-18T17:24:44;-1.20;99.90
27164;DHT22;14685;50.618;7.024;2022-12-18T17:27:11;-1.30;99.90
27164;DHT22;14685;50.618;7.024;2022-12-18T17:29:38;-1.30;99.90
27164;DHT22;14685;50.618;7.024;2022-12-18T17:32:13;-1.20;99.90
27164;DHT22;14685;50.618;7.024;2022-12-18T17:34:40;-1.20;99.90